Pagrindinis puslapis
METAR-TAF:

METAR-TAF

Oro uostai :

Kelnas, Vokietija

platuma: 50-52N, ilguma: 007-10E, Aukštis: 91 m

Dabartinis oras

Ataskaita buvo paskelbta 10 minutes, ne 09:20 UTC
Vėjas 5 kt iš Pietryčių, svyruoja nuo Rytų/Šiaurės Rytų ir Pietų
Temperatūra 15°C
Drėgmė 51%
Slėgis 1029 hPa
Matomumas 10 km arba daugiau
nėra debesų žemiau 1500 m ir nėra kamuolinių lietaus debesų

METAR: EDDK 200920Z 14005KT 070V190 CAVOK 15/05 Q1029 NOSIG

Laikas: 11:30 (09:30 UTC)

Prognozė

Ataskaita buvo paskelbta 4 valandos ir 30 minutes, ne 05:00 UTC
Prognozė galioja nuo 20 metu 06 UTC su 21 metu 12 UTC
Vėjas 4 kt iš Rytų
Matomumas 10 km arba daugiau
nėra debesų žemiau 1500 m ir nėra kamuolinių lietaus debesų
Tapsmas
nuo 21 metu 06 UTC su 21 metu 08 UTC
Vėjas 10 kt iš Pietryčių

TAF: EDDK 200500Z 2006/2112 10004KT CAVOK BECMG 2106/2108 13010KT

Orai ataskaitas ir orų prognozės (METAR, TAF).

turimą stotys yra geltonos ir raudonos taškus žemėlapyje.

Perkelti pele per norėdami pamatyti stoties vardą.

Tada spustelėkite, norėdami matyti oro stebėjimo ir prognozės.

Norėdami pakeisti žemėlapį: spustelėkite ant žalios mygtukų su juodo kryžiaus žemyn,; žalią mygtuką su brūkšneliu, jei norite nutolinti; arba žalių rodyklių gretimoms žemėlapius.


METAR-TAF: